createdAt,value
2019-03-10T00:02:18.517Z,22.80
2019-03-10T00:04:46.698Z,23.40
2019-03-10T00:07:14.849Z,21.57
2019-03-10T00:09:43.124Z,22.10
2019-03-10T00:12:11.280Z,19.87
2019-03-10T00:14:40.542Z,16.83
2019-03-10T00:17:08.759Z,14.37
2019-03-10T00:19:36.959Z,26.80
2019-03-10T00:22:05.995Z,19.30
2019-03-10T00:24:34.177Z,17.47
2019-03-10T00:27:03.885Z,24.23
2019-03-10T00:29:32.814Z,24.43
2019-03-10T00:32:01.262Z,21.23
2019-03-10T00:34:31.475Z,19.10
2019-03-10T00:36:59.923Z,26.17
2019-03-10T00:39:35.627Z,27.83
2019-03-10T00:42:14.088Z,21.73
2019-03-10T00:45:00.458Z,24.40
2019-03-10T00:47:45.303Z,28.87
2019-03-10T00:50:26.984Z,21.50
2019-03-10T00:52:57.492Z,26.23
2019-03-10T00:55:25.756Z,25.83
2019-03-10T00:57:53.960Z,19.73
2019-03-10T01:00:22.072Z,25.37
2019-03-10T01:02:50.222Z,16.83
2019-03-10T01:05:18.487Z,19.17
2019-03-10T01:07:46.893Z,20.67
2019-03-10T01:10:15.109Z,23.97
2019-03-10T01:12:43.384Z,18.03
2019-03-10T01:15:12.763Z,23.83
2019-03-10T01:17:41.362Z,22.40
2019-03-10T01:20:12.300Z,20.93
2019-03-10T01:22:40.525Z,19.37
2019-03-10T01:25:12.405Z,23.90
2019-03-10T01:27:40.645Z,25.37
2019-03-10T01:30:13.486Z,20.70
2019-03-10T01:32:57.658Z,24.67
2019-03-10T01:35:26.928Z,21.93
2019-03-10T01:37:55.089Z,20.07
2019-03-10T01:40:23.267Z,21.73
2019-03-10T01:42:51.472Z,12.37
2019-03-10T01:45:19.597Z,24.10
2019-03-10T01:47:47.743Z,22.27
2019-03-10T01:50:15.935Z,19.40
2019-03-10T01:52:44.171Z,24.13
2019-03-10T01:55:14.058Z,19.03
2019-03-10T01:57:42.385Z,26.90
2019-03-10T02:00:12.057Z,23.63
2019-03-10T02:02:40.168Z,18.30
2019-03-10T02:05:08.287Z,20.33
2019-03-10T02:07:36.408Z,21.77
2019-03-10T02:10:06.291Z,22.00
2019-03-10T02:12:34.401Z,20.03
2019-03-10T02:15:02.516Z,21.33
2019-03-10T02:17:30.720Z,17.60
2019-03-10T02:20:01.989Z,11.83
2019-03-10T02:22:30.350Z,13.50
2019-03-10T02:24:58.473Z,15.37
2019-03-10T02:27:26.582Z,10.73
2019-03-10T02:29:54.785Z,15.47
2019-03-10T02:32:22.923Z,11.33
2019-03-10T02:34:51.359Z,10.40
2019-03-10T02:37:19.875Z,16.67
2019-03-10T02:39:47.982Z,8.97
2019-03-10T02:42:16.128Z,12.43
2019-03-10T02:44:44.740Z,15.10
2019-03-10T02:47:12.848Z,13.57
2019-03-10T02:49:41.087Z,15.40
2019-03-10T02:52:09.287Z,12.87
2019-03-10T02:54:37.413Z,14.07
2019-03-10T02:57:05.915Z,19.27
2019-03-10T02:59:34.029Z,15.63
2019-03-10T03:02:02.249Z,20.47
2019-03-10T03:04:30.360Z,16.00
2019-03-10T03:06:58.468Z,19.00
2019-03-10T03:09:26.620Z,15.43
2019-03-10T03:11:54.723Z,18.50
2019-03-10T03:14:22.838Z,17.73
2019-03-10T03:16:52.898Z,16.97
2019-03-10T03:19:21.088Z,18.57
2019-03-10T03:21:49.577Z,17.60
2019-03-10T03:24:17.702Z,16.10
2019-03-10T03:26:45.815Z,17.30
2019-03-10T03:29:14.308Z,18.93
2019-03-10T03:31:42.422Z,20.13
2019-03-10T03:34:10.543Z,17.67
2019-03-10T03:36:38.690Z,27.90
2019-03-10T03:39:17.335Z,15.37
2019-03-10T03:41:48.460Z,22.87
2019-03-10T03:44:16.556Z,19.43
2019-03-10T03:46:44.673Z,17.50
2019-03-10T03:49:12.813Z,15.23
2019-03-10T03:51:40.937Z,16.20
2019-03-10T03:54:09.122Z,17.83
2019-03-10T03:56:37.353Z,18.77
2019-03-10T03:59:05.466Z,12.37
2019-03-10T04:01:35.294Z,12.10
2019-03-10T04:04:03.455Z,15.10
2019-03-10T04:06:31.724Z,18.80
2019-03-10T04:08:59.842Z,15.40
2019-03-10T04:11:27.981Z,12.83
2019-03-10T04:13:56.093Z,16.43
2019-03-10T04:16:24.269Z,20.03
2019-03-10T04:18:52.427Z,11.57
2019-03-10T04:21:20.621Z,19.17
2019-03-10T04:23:48.743Z,20.77
2019-03-10T04:26:16.878Z,17.50
2019-03-10T04:28:44.995Z,16.13
2019-03-10T04:31:13.120Z,10.00
2019-03-10T04:33:41.321Z,17.20
2019-03-10T04:36:09.436Z,19.30
2019-03-10T04:38:37.553Z,14.43
2019-03-10T04:41:05.695Z,15.33
2019-03-10T04:43:33.813Z,20.10
2019-03-10T04:46:04.788Z,20.07
2019-03-10T04:48:32.912Z,16.17
2019-03-10T04:51:01.037Z,15.63
2019-03-10T04:53:29.180Z,19.33
2019-03-10T04:56:01.948Z,21.80
2019-03-10T04:58:30.540Z,16.67
2019-03-10T05:00:59.675Z,18.90
2019-03-10T05:03:27.786Z,14.03
2019-03-10T05:05:55.976Z,22.93
2019-03-10T05:08:24.202Z,19.37
2019-03-10T05:10:52.333Z,14.07
2019-03-10T05:13:21.502Z,15.07
2019-03-10T05:15:49.704Z,16.07
2019-03-10T05:18:17.837Z,13.63
2019-03-10T05:20:45.990Z,14.60
2019-03-10T05:23:21.592Z,20.37
2019-03-10T05:25:49.746Z,39.87
2019-03-10T05:28:17.939Z,40.73
2019-03-10T05:30:46.061Z,39.97
2019-03-10T05:33:14.214Z,38.20
2019-03-10T05:35:42.326Z,20.57
2019-03-10T05:38:10.441Z,18.10
2019-03-10T05:40:38.586Z,14.40
2019-03-10T05:43:06.715Z,14.73
2019-03-10T05:45:34.822Z,14.27
2019-03-10T05:48:02.976Z,13.40
2019-03-10T05:50:31.089Z,13.40
2019-03-10T05:53:00.780Z,12.23
2019-03-10T05:55:29.103Z,16.80
2019-03-10T05:57:57.231Z,14.97
2019-03-10T06:00:25.467Z,20.33
2019-03-10T06:02:53.572Z,8.57
2019-03-10T06:05:21.675Z,9.50
2019-03-10T06:07:49.822Z,10.97
2019-03-10T06:10:17.935Z,16.80
2019-03-10T06:12:46.045Z,14.17
2019-03-10T06:15:14.193Z,19.90
2019-03-10T06:17:42.367Z,14.43
2019-03-10T06:20:10.561Z,17.60
2019-03-10T06:22:38.721Z,13.87
2019-03-10T06:25:09.610Z,17.17
2019-03-10T06:27:37.781Z,14.50
2019-03-10T06:30:08.281Z,15.13
2019-03-10T06:32:36.389Z,18.17
2019-03-10T06:35:05.467Z,16.83
2019-03-10T06:37:33.661Z,18.73
2019-03-10T06:40:01.766Z,17.40
2019-03-10T06:42:29.888Z,19.20
2019-03-10T06:44:58.013Z,16.23
2019-03-10T06:47:26.128Z,17.13
2019-03-10T06:49:54.256Z,16.13
2019-03-10T06:52:22.378Z,17.37
2019-03-10T06:54:52.433Z,17.90
2019-03-10T06:57:20.617Z,17.00
2019-03-10T06:59:50.062Z,19.20
2019-03-10T07:02:18.490Z,10.70
2019-03-10T07:04:46.605Z,3.83
2019-03-10T07:07:14.780Z,2.80
2019-03-10T07:09:42.916Z,2.80
2019-03-10T07:12:11.028Z,2.40
2019-03-10T07:14:39.140Z,2.13
2019-03-10T07:17:07.274Z,2.90
2019-03-10T07:19:35.384Z,2.50
2019-03-10T07:22:04.243Z,2.60
2019-03-10T07:24:32.520Z,1.53
2019-03-10T07:27:02.279Z,3.60
2019-03-10T07:29:32.484Z,1.27
2019-03-10T07:32:09.077Z,3.37
2019-03-10T07:34:39.009Z,1.40
2019-03-10T07:37:09.498Z,1.77
2019-03-10T07:39:48.299Z,1.07
2019-03-10T07:42:18.066Z,0.50
2019-03-10T07:44:50.951Z,0.93
2019-03-10T07:47:20.740Z,2.93
2019-03-10T07:49:50.489Z,0.60
2019-03-10T07:52:29.560Z,0.70
2019-03-10T07:55:18.178Z,0.60
2019-03-10T07:57:50.956Z,1.40
2019-03-10T08:00:32.852Z,0.43
2019-03-10T08:03:08.222Z,0.70
2019-03-10T08:05:54.428Z,0.90
2019-03-10T08:08:36.268Z,0.30
2019-03-10T08:11:09.028Z,0.50
2019-03-10T08:13:55.373Z,1.00
2019-03-10T08:16:31.317Z,0.80
2019-03-10T08:19:10.402Z,1.97
2019-03-10T08:21:49.491Z,0.67
2019-03-10T08:24:22.208Z,0.93
2019-03-10T08:27:10.315Z,2.00
2019-03-10T08:29:40.165Z,0.50
2019-03-10T08:32:24.737Z,2.17
2019-03-10T08:35:11.400Z,3.03
2019-03-10T08:37:57.488Z,4.23
2019-03-10T08:40:32.778Z,1.53
2019-03-10T08:43:11.897Z,1.10
2019-03-10T08:45:41.740Z,0.80
2019-03-10T08:48:11.487Z,2.63
2019-03-10T08:50:44.012Z,3.37
2019-03-10T08:53:16.656Z,4.63
2019-03-10T08:55:46.472Z,4.50
2019-03-10T08:58:18.888Z,5.20
2019-03-10T09:00:54.761Z,2.13
2019-03-10T09:03:34.018Z,5.03
2019-03-10T09:06:09.945Z,4.90
2019-03-10T09:08:45.866Z,5.23
2019-03-10T09:11:34.270Z,6.17
2019-03-10T09:14:16.605Z,2.53
2019-03-10T09:16:46.784Z,2.10
2019-03-10T09:19:22.363Z,2.83
2019-03-10T09:21:54.896Z,11.87
2019-03-10T09:24:41.494Z,3.53
2019-03-10T09:27:14.107Z,5.70
2019-03-10T09:29:55.973Z,2.97
2019-03-10T09:32:42.976Z,5.53
2019-03-10T09:35:15.882Z,5.40
2019-03-10T09:37:45.920Z,3.17
2019-03-10T09:40:32.150Z,3.83
2019-03-10T09:43:11.414Z,5.83
2019-03-10T09:45:53.009Z,3.77
2019-03-10T09:48:28.976Z,3.30
2019-03-10T09:51:07.520Z,6.53
2019-03-10T09:53:43.058Z,4.87
2019-03-10T09:56:18.699Z,8.90
2019-03-10T09:58:57.311Z,7.07
2019-03-10T10:01:27.087Z,6.17
2019-03-10T10:03:59.827Z,6.93
2019-03-10T10:06:35.499Z,3.70
2019-03-10T10:09:22.453Z,6.57
2019-03-10T10:11:55.147Z,8.23
2019-03-10T10:14:25.709Z,7.97
2019-03-10T10:16:56.110Z,9.47
2019-03-10T10:19:28.628Z,6.43
2019-03-10T10:21:58.590Z,7.80
2019-03-10T10:24:28.369Z,9.33
2019-03-10T10:26:58.129Z,8.43
2019-03-10T10:29:45.733Z,8.07
2019-03-10T10:32:18.545Z,6.27
2019-03-10T10:34:48.389Z,12.73
2019-03-10T10:37:23.912Z,9.70
2019-03-10T10:40:10.777Z,8.30
2019-03-10T10:42:59.370Z,7.27
2019-03-10T10:45:45.749Z,8.83
2019-03-10T10:48:15.508Z,7.93
2019-03-10T10:50:45.440Z,7.37
2019-03-10T10:53:21.631Z,12.10
2019-03-10T10:55:51.577Z,9.17
2019-03-10T10:58:21.325Z,9.27
2019-03-10T11:01:09.933Z,6.13
2019-03-10T11:03:51.548Z,7.20
2019-03-10T11:06:24.568Z,9.10
2019-03-10T11:09:09.715Z,5.53
2019-03-10T11:11:48.846Z,10.50
2019-03-10T11:14:34.457Z,7.53
2019-03-10T11:17:16.207Z,8.57
2019-03-10T11:20:04.245Z,10.23
2019-03-10T11:22:40.447Z,8.83
2019-03-10T11:25:22.620Z,9.77
2019-03-10T11:27:55.187Z,7.17
2019-03-10T11:30:25.457Z,12.17
2019-03-10T11:32:55.247Z,12.47
2019-03-10T11:35:43.314Z,9.40
2019-03-10T11:38:22.205Z,14.73
2019-03-10T11:40:55.307Z,11.67
2019-03-10T11:43:25.165Z,14.20
2019-03-10T11:46:10.376Z,13.80
2019-03-10T11:48:55.249Z,10.73
2019-03-10T11:51:39.925Z,8.93
2019-03-10T11:54:09.687Z,10.33
2019-03-10T11:56:42.039Z,14.93
2019-03-10T11:59:11.081Z,7.67
2019-03-10T12:01:41.001Z,10.90
2019-03-10T12:04:17.009Z,8.23
2019-03-10T12:07:04.266Z,10.73
2019-03-10T12:09:33.380Z,13.13
2019-03-10T12:12:04.757Z,8.03
2019-03-10T12:14:32.876Z,6.83
2019-03-10T12:17:01.042Z,13.27
2019-03-10T12:19:29.402Z,4.90
2019-03-10T12:21:57.560Z,8.80
2019-03-10T12:24:25.913Z,12.70
2019-03-10T12:26:55.086Z,9.47
2019-03-10T12:29:23.264Z,12.43
2019-03-10T12:31:51.391Z,12.60
2019-03-10T12:34:20.511Z,12.27
2019-03-10T12:36:48.822Z,16.73
2019-03-10T12:39:17.360Z,12.13
2019-03-10T12:41:45.653Z,10.87
2019-03-10T12:44:13.797Z,8.30
2019-03-10T12:46:43.334Z,10.60
2019-03-10T12:49:11.764Z,11.57
2019-03-10T12:51:39.872Z,11.23
2019-03-10T12:54:09.547Z,10.63
2019-03-10T12:56:37.813Z,11.20
2019-03-10T12:59:06.419Z,10.90
2019-03-10T13:01:34.626Z,11.90
2019-03-10T13:04:02.814Z,10.70
2019-03-10T13:06:31.253Z,12.87
2019-03-10T13:08:59.469Z,14.07
2019-03-10T13:11:27.580Z,10.13
2019-03-10T13:13:55.729Z,7.77
2019-03-10T13:16:23.837Z,8.57
2019-03-10T13:18:51.962Z,7.27
2019-03-10T13:21:21.823Z,8.13
2019-03-10T13:23:49.993Z,8.80
2019-03-10T13:26:18.141Z,4.67
2019-03-10T13:28:46.884Z,5.03
2019-03-10T13:31:15.434Z,3.33
2019-03-10T13:33:47.947Z,5.73
2019-03-10T13:36:16.040Z,2.47
2019-03-10T13:38:44.251Z,2.73
2019-03-10T13:41:12.359Z,3.70
2019-03-10T13:43:40.488Z,5.60
2019-03-10T13:46:08.664Z,1.77
2019-03-10T13:48:36.772Z,1.80
2019-03-10T13:51:04.977Z,2.73
2019-03-10T13:53:52.468Z,1.17
2019-03-10T13:56:20.572Z,1.63
2019-03-10T13:58:48.761Z,1.10
2019-03-10T14:01:16.890Z,0.43
2019-03-10T14:03:45.005Z,4.13
2019-03-10T14:06:13.131Z,2.80
2019-03-10T14:08:41.305Z,1.97
2019-03-10T14:11:09.430Z,1.47
2019-03-10T14:13:37.553Z,1.13
2019-03-10T14:16:05.687Z,1.77
2019-03-10T14:18:33.796Z,2.40
2019-03-10T14:21:01.948Z,2.20
2019-03-10T14:23:30.068Z,1.67
2019-03-10T14:25:58.201Z,2.67
2019-03-10T14:28:26.333Z,3.60
2019-03-10T14:30:54.567Z,4.13
2019-03-10T14:33:22.820Z,0.50
2019-03-10T14:35:51.377Z,1.63
2019-03-10T14:38:19.495Z,1.07
2019-03-10T14:40:47.671Z,2.40
2019-03-10T14:43:15.784Z,0.93
2019-03-10T14:45:43.916Z,2.47
2019-03-10T14:48:12.066Z,4.17
2019-03-10T14:50:40.192Z,0.57
2019-03-10T14:53:08.359Z,1.70
2019-03-10T14:55:36.478Z,0.53
2019-03-10T14:58:04.873Z,2.80
2019-03-10T15:00:33.009Z,2.93
2019-03-10T15:03:01.124Z,3.27
2019-03-10T15:05:29.232Z,3.90
2019-03-10T15:07:57.462Z,1.57
2019-03-10T15:10:25.649Z,3.83
2019-03-10T15:12:53.852Z,2.83
2019-03-10T15:15:23.141Z,1.60
2019-03-10T15:17:51.653Z,1.43
2019-03-10T15:20:21.640Z,0.67
2019-03-10T15:22:49.770Z,0.90
2019-03-10T15:25:18.653Z,0.63
2019-03-10T15:27:46.949Z,0.33
2019-03-10T15:30:16.603Z,1.80
2019-03-10T15:32:44.796Z,3.60
2019-03-10T15:35:13.272Z,1.53
2019-03-10T15:37:41.400Z,2.83
2019-03-10T15:40:13.272Z,0.50
2019-03-10T15:42:41.500Z,0.57
2019-03-10T15:45:10.788Z,1.03
2019-03-10T15:47:39.159Z,1.87
2019-03-10T15:50:08.833Z,0.60
2019-03-10T15:52:37.032Z,1.40
2019-03-10T15:55:05.234Z,1.63
2019-03-10T15:57:33.340Z,1.83
2019-03-10T16:00:01.569Z,0.57
2019-03-10T16:02:29.695Z,0.70
2019-03-10T16:04:57.885Z,0.60
2019-03-10T16:07:25.989Z,0.80
2019-03-10T16:09:54.111Z,2.43
2019-03-10T16:12:22.227Z,4.60
2019-03-10T16:14:50.351Z,1.60
2019-03-10T16:17:18.472Z,2.33
2019-03-10T16:19:46.657Z,1.60
2019-03-10T16:22:14.764Z,1.07
2019-03-10T16:24:42.903Z,2.93
2019-03-10T16:27:11.024Z,2.73
2019-03-10T16:29:39.155Z,3.07
2019-03-10T16:32:07.284Z,1.97
2019-03-10T16:34:35.485Z,2.63
2019-03-10T16:37:03.768Z,3.47
2019-03-10T16:39:31.898Z,2.23
2019-03-10T16:42:00.039Z,1.03
2019-03-10T16:44:28.224Z,2.77
2019-03-10T16:46:56.602Z,3.87
2019-03-10T16:49:24.731Z,1.37
2019-03-10T16:51:52.840Z,1.27
2019-03-10T16:54:20.986Z,1.83
2019-03-10T16:56:49.100Z,1.63
2019-03-10T16:59:17.216Z,1.97
2019-03-10T17:01:45.332Z,2.33
2019-03-10T17:04:13.436Z,1.97
2019-03-10T17:06:41.573Z,1.17
2019-03-10T17:09:16.730Z,4.70
2019-03-10T17:11:44.863Z,2.90
2019-03-10T17:14:13.107Z,2.07
2019-03-10T17:16:41.252Z,1.87
2019-03-10T17:19:09.720Z,2.63
2019-03-10T17:21:38.036Z,1.37
2019-03-10T17:24:06.158Z,1.63
2019-03-10T17:26:34.442Z,2.90
2019-03-10T17:29:02.552Z,1.17
2019-03-10T17:31:30.689Z,3.50
2019-03-10T17:33:58.865Z,1.10
2019-03-10T17:36:27.005Z,1.87
2019-03-10T17:38:55.180Z,4.37
2019-03-10T17:41:23.375Z,1.10
2019-03-10T17:43:51.481Z,2.73
2019-03-10T17:46:19.696Z,2.83
2019-03-10T17:48:47.879Z,1.67
2019-03-10T17:51:16.002Z,2.60
2019-03-10T17:53:44.112Z,2.37
2019-03-10T17:56:12.240Z,3.37
2019-03-10T17:58:40.393Z,5.30
2019-03-10T18:01:08.559Z,3.57
2019-03-10T18:03:36.666Z,2.73
2019-03-10T18:06:04.933Z,3.03
2019-03-10T18:08:33.069Z,5.47
2019-03-10T18:11:01.255Z,3.10
2019-03-10T18:13:29.392Z,3.63
2019-03-10T18:15:57.496Z,7.30
2019-03-10T18:18:25.628Z,6.10
2019-03-10T18:20:53.739Z,2.03
2019-03-10T18:23:22.020Z,2.80
2019-03-10T18:25:50.128Z,2.27
2019-03-10T18:28:18.252Z,3.50
2019-03-10T18:30:46.360Z,1.63
2019-03-10T18:33:14.556Z,1.37
2019-03-10T18:35:42.661Z,1.73
2019-03-10T18:38:10.793Z,3.03
2019-03-10T18:40:38.907Z,2.40
2019-03-10T18:43:07.032Z,1.67
2019-03-10T18:45:35.260Z,3.73
2019-03-10T18:48:03.369Z,1.70
2019-03-10T18:50:31.523Z,2.00
2019-03-10T18:52:59.639Z,0.70
2019-03-10T18:55:27.768Z,2.03
2019-03-10T18:58:01.847Z,1.93
2019-03-10T19:00:31.163Z,3.07
2019-03-10T19:02:59.266Z,2.73
2019-03-10T19:05:27.463Z,2.20
2019-03-10T19:07:55.962Z,1.80
2019-03-10T19:10:24.097Z,1.23
2019-03-10T19:12:52.291Z,0.60
2019-03-10T19:15:21.130Z,5.33
2019-03-10T19:17:49.329Z,1.53
2019-03-10T19:20:17.533Z,1.67
2019-03-10T19:22:45.709Z,4.07
2019-03-10T19:25:16.907Z,3.70
2019-03-10T19:27:45.083Z,3.70
2019-03-10T19:30:19.687Z,4.43
2019-03-10T19:32:47.961Z,2.90
2019-03-10T19:35:16.159Z,2.60
2019-03-10T19:37:44.336Z,1.43
2019-03-10T19:40:13.427Z,3.33
2019-03-10T19:42:41.539Z,2.40
2019-03-10T19:45:11.217Z,6.63
2019-03-10T19:47:39.331Z,0.87
2019-03-10T19:50:11.601Z,2.77
2019-03-10T19:52:40.973Z,2.27
2019-03-10T19:55:10.247Z,2.63
2019-03-10T19:57:38.418Z,2.30
2019-03-10T20:00:11.398Z,1.73
2019-03-10T20:02:39.711Z,3.23
2019-03-10T20:05:08.672Z,3.50
2019-03-10T20:07:36.809Z,2.37
2019-03-10T20:10:06.787Z,4.67
2019-03-10T20:12:34.921Z,3.03
2019-03-10T20:15:03.495Z,1.93
2019-03-10T20:17:31.624Z,3.37
2019-03-10T20:19:59.741Z,2.97
2019-03-10T20:22:27.976Z,3.80
2019-03-10T20:24:56.088Z,2.70
2019-03-10T20:27:24.216Z,1.87
2019-03-10T20:29:52.328Z,3.30
2019-03-10T20:32:20.460Z,1.90
2019-03-10T20:34:48.572Z,3.23
2019-03-10T20:37:16.708Z,5.40
2019-03-10T20:39:44.816Z,4.37
2019-03-10T20:42:12.940Z,5.00
2019-03-10T20:44:41.096Z,3.60
2019-03-10T20:47:09.292Z,3.70
2019-03-10T20:49:37.409Z,5.67
2019-03-10T20:52:05.541Z,6.53
2019-03-10T20:54:33.653Z,6.83
2019-03-10T20:57:01.773Z,4.03
2019-03-10T20:59:29.983Z,9.20
2019-03-10T21:01:58.254Z,3.30
2019-03-10T21:04:26.757Z,7.83
2019-03-10T21:06:54.875Z,5.03
2019-03-10T21:09:23.020Z,5.07
2019-03-10T21:11:51.281Z,3.70
2019-03-10T21:14:19.473Z,2.20
2019-03-10T21:16:47.661Z,6.70
2019-03-10T21:19:15.792Z,5.33
2019-03-10T21:21:43.912Z,4.50
2019-03-10T21:24:12.053Z,7.23
2019-03-10T21:26:40.163Z,3.87
2019-03-10T21:29:08.292Z,2.90
2019-03-10T21:31:36.415Z,6.53
2019-03-10T21:34:04.608Z,6.97
2019-03-10T21:36:32.725Z,3.57
2019-03-10T21:39:00.860Z,2.40
2019-03-10T21:41:28.984Z,7.43
2019-03-10T21:43:57.262Z,2.37
2019-03-10T21:46:25.536Z,9.40
2019-03-10T21:48:53.684Z,3.73
2019-03-10T21:51:21.849Z,9.43
2019-03-10T21:53:49.952Z,6.53
2019-03-10T21:56:19.047Z,3.10
2019-03-10T21:58:47.165Z,4.83
2019-03-10T22:01:15.370Z,5.03
2019-03-10T22:03:43.502Z,5.40
2019-03-10T22:06:11.611Z,3.67
2019-03-10T22:08:39.725Z,3.03
2019-03-10T22:11:07.865Z,7.00
2019-03-10T22:13:46.110Z,6.70
2019-03-10T22:16:05.976Z,5.70
2019-03-10T22:18:34.105Z,5.80
2019-03-10T22:21:02.235Z,6.83
2019-03-10T22:23:30.344Z,7.60
2019-03-10T22:25:58.475Z,5.63
2019-03-10T22:28:26.592Z,5.50
2019-03-10T22:30:54.722Z,4.80
2019-03-10T22:33:22.839Z,5.00
2019-03-10T22:35:50.999Z,6.87
2019-03-10T22:38:19.250Z,8.70
2019-03-10T22:40:47.387Z,6.77
2019-03-10T22:43:15.508Z,6.50
2019-03-10T22:45:43.657Z,6.93
2019-03-10T22:48:11.789Z,2.13
2019-03-10T22:50:39.942Z,8.20
2019-03-10T22:53:08.076Z,13.80
2019-03-10T22:55:36.216Z,7.40
2019-03-10T22:58:04.352Z,5.57
2019-03-10T23:00:46.734Z,6.47
2019-03-10T23:03:14.923Z,13.07
2019-03-10T23:05:43.069Z,7.00
2019-03-10T23:08:11.183Z,7.03
2019-03-10T23:10:39.339Z,10.93
2019-03-10T23:13:07.468Z,11.47
2019-03-10T23:15:35.584Z,11.57
2019-03-10T23:18:03.816Z,9.73
2019-03-10T23:20:31.922Z,7.93
2019-03-10T23:23:00.085Z,10.13
2019-03-10T23:25:28.257Z,7.17
2019-03-10T23:27:56.399Z,7.63
2019-03-10T23:30:24.526Z,12.23
2019-03-10T23:32:52.651Z,7.80
2019-03-10T23:35:20.762Z,9.73
2019-03-10T23:37:48.910Z,9.63
2019-03-10T23:40:17.593Z,7.37
2019-03-10T23:42:45.726Z,11.93
2019-03-10T23:45:17.243Z,12.90
2019-03-10T23:47:45.433Z,8.17
2019-03-10T23:50:14.406Z,11.53
2019-03-10T23:52:42.545Z,9.47
2019-03-10T23:55:13.808Z,5.60
2019-03-10T23:57:42.004Z,3.73
